Ride Results

Terrific Tenterfield (29-05-2010)
Ride distance: 100.0 km

Outcomes - Terrific Tenterfield (29-05-2010)
Division No. of Entries Retired / DNE Completed Withdrawn Ineligible V/O Percentage Completed
HW 8 - 7 - - 1 87.50%
MW 16 - 13 - - 3 81.25%
LW 8 - 7 - - 1 87.50%
JN 6 - 5 1 - - 83.33%
Totals 38 - 32 1 - 5 84.21%
Results - Terrific Tenterfield (29-05-2010)
No. Rider Horse Place Time Leg Speeds Total
Km/Hr
H/R bpm
Heavyweight
163 Matthew Gadsby Tierview Feather Danczer 1 (BC) 6:39:00 13.2, 18.3, 13.7 15.04 32, 47, 43, 51 (Avg:47)
171 Dick Collyer Crystabarbara 2 8:26:00 11.7, 13.1, 10.1 11.86 36, 37, 50, 43 (Avg:43)
176 Tad Cossins Jaytee Silhouette 3 8:29:00 13.5, 12.3, 8.7 11.79 30, 41, 46, 42 (Avg:43)
158 Mark Harris Latif Jemima 4 8:40:00 10.9, 13.7, 9.5 11.54 33, 49, 46, 43 (Avg:46)
164 Roger Warner Hillbrae Kahalan 4 8:40:00 11.3, 13.1, 9.5 11.54 37, 45, 50, 50 (Avg:48)
155 Marty Branigan Cameo Apassionataa 6 8:44:00 10.9, 13.0, 9.9 11.45 45, 48, 42, 50 (Avg:46)
170 Keith Sullivan Luciana 7 9:28:00 11.7, 11.9, 7.4 10.56 32, 45, 49, 53 (Avg:49)
167 Gregg Fields Dunwingeri Shahman Lame L2 0:00:00 13.6, 16.7 - 41, 48, 53 (Avg:50)
Middleweight
160 Camila Champagne-Bargenquast Shaah 1 (BC) 6:25:00 13.3, 18.1, 16.4 15.58 35, 48, 46, 42 (Avg:45)
162 John Dugan Performance Park Lady Kharisma 1 6:25:00 13.3, 18.1, 16.4 15.58 29, 40, 42, 43 (Avg:41)
156 Tarnia Kittel Splendacrest Dryad 3 6:40:00 14.3, 16.4, 13.7 15.00 37, 49, 52, 52 (Avg:51)
175 Simone Krahnen Kalkadoon Zorro 4 7:28:00 11.9, 14.6, 14.4 13.39 41, 40, 45, 40 (Avg:41)
161 Caroline Fitzgerald Lanamere Femmara 5 7:32:00 11.1, 18.1, 11.5 13.27 33, 44, 48, 50 (Avg:47)
185 Sally Summers Harry Potter 5 7:32:00 12.9, 14.7, 11.6 13.27 33, 44, 49, 46 (Avg:46)
186 Della Weier Kahshah 5 7:32:00 12.9, 14.7, 11.6 13.27 33, 40, 52, 48 (Avg:46)
153 Tanya Zanow Sarandeep 5 7:32:00 12.9, 14.8, 11.5 13.27 31, 40, 46, 40 (Avg:42)
182 Jane Davidson Cherox Bluebeard 9 7:41:00 12.5, 13.5, 12.9 13.02 31, 46, 47, 44 (Avg:45)
187 Bridget Nottle Zalman 10 8:44:00 10.9, 13.0, 9.9 11.45 34, 44, 44, 44 (Avg:44)
177 Jan Rohweder Charlie Chaplin 11 8:58:00 11.7, 11.7, 9.3 11.15 36, 44, 44, 48 (Avg:45)
169 Jillian Crowley Lilla 12 9:28:00 11.7, 11.8, 7.4 10.56 39, 42, 57, 51 (Avg:50)
168 Lorraine Ternouth Drumlin Mystic Moon 12 9:28:00 11.7, 11.9, 7.4 10.56 38, 40, 44, 46 (Avg:43)
172 Maureen Feltham Malali Lame L3 0:00:00 14.4, 15.8, 9.7 - 31, 46, 50, 52 (Avg:49)
165 Joy Craig Kynnum Park Winter Wind Lame L2 0:00:00 11.7, 13.1 - 31, 44, 46 (Avg:45)
184 Karen Lee Shatahnia Lame L1 0:00:00 12.2 - 38, 38 (Avg:38)
Lightweight
166 Karen Fields Duwurri Midnite Magic 1 (BC) 6:45:00 13.5, 16.9, 13.9 14.81 33, 40, 50, 50 (Avg:46)
154 Abby McMurrich Tannamara Reimahni 2 7:04:00 13.2, 17.9, 11.0 14.15 48, 47, 51, 49 (Avg:49)
152 Clare Fleming Birramalee Queen of Hearts 3 7:13:00 14.3, 16.5, 9.9 13.86 39, 44, 46, 46 (Avg:45)
188 Shay Corbett Heartfire Hafiz 4 7:41:00 12.5, 13.5, 12.9 13.02 31, 45, 47, 55 (Avg:49)
183 Robyn Brazel Thomas 5 7:48:00 12.2, 14.9, 10.8 12.82 41, 46, 50, 49 (Avg:48)
157 Graysen Clarke Melcot Bella 6 8:40:00 10.9, 13.7, 9.5 11.54 34, 41, 51, 42 (Avg:44)
179 Christine Ablett Lindall Falen 7 8:58:00 11.7, 11.7, 9.3 11.15 28, 40, 49, 51 (Avg:46)
181 Kirsty Owen Celebration Metabolics severe L2 0:00:00 15.8, 17.1 - 36, 49, 47 (Avg:48)
Junior
150 Hannah Houlden Armani Thunder 1 (BC) 6:40:00 14.3, 16.4, 13.7 15.00 50, 50, 50, 50 (Avg:50)
173 Erin Krahnen Ardai 2 7:28:10 11.9, 14.6, 14.4 13.39 36, 46, 46, 54 (Avg:48)
174 Colleen Krahnen Kalkadoon Viva 2 7:28:10 11.9, 14.6, 14.4 13.39 31, 40, 41, 41 (Avg:40)
159 Wade Burgess Cameo Stormboy 4 7:33:00 12.6, 15.3, 11.1 13.25 30, 42, 47, 44 (Avg:44)
180 Sarah Stuart Abrock Lucinda 5 7:48:00 12.6, 13.6, 11.6 12.82 34, 39, 42, 44 (Avg:41)
151 Racheal Townsend Chingford Blaze Away Widthdrawn L1 0:00:00 - - 38, 45 (Avg:45)